首页
METAR-TAF:

METAR-TAF

机场 :

阿布鲁佐国际机场

佩斯卡拉, 意大利

纬度: 42-26N, 经度: 014-12E, 海拔: 10米

当前天气观测

该预报发布于1小时和8分钟前的09:06 UTC
风速5节,风向西南
温度 8°C
湿度 93%
气压 1025 hPa
能見度: 5000
小雨

METAR: LIBP 190906Z AUTO 22005KT 5000 -RA OVC043/// 08/07 Q1025

时间: 11:14 (10:14 UTC)

预报

该预报发布于5小时和14分钟前的05:00 UTC
预报有效从19日的 06点(UTC)到 20日的 06点(UTC)
风速5节,风向多变
能見度: 7000
多云层高于3000英尺
短暂存在
从 19日的 06点(UTC)到 19日的 08点(UTC)
能見度: 2000
轻雾
成为
从 19日的 06点(UTC)到 19日的 08点(UTC)
风速10节,风向

TAF: LIBP 190500Z 1906/2006 VRB05KT 7000 BKN030 TEMPO 1906/1908 2000 BR BECMG 1906/1908 36010KT

超过4000个机场的气象观测和天气预报(METAR&TAF报告)。

可查询的气象台以黄色和红色小点在地图上表示。

将鼠标移到小点上方,可查看气象台名称。

然后点击查看天气观测和预报。

如需切换地图:点击带黑十字的绿色按钮放大地图;点击带横线的绿色按钮缩小地图;或者点击绿色箭头查看邻近地区的地图。


METAR-TAF: